sensor_id;sensor_type;location;lat;lon;timestamp;P1;durP1;ratioP1;P2;durP2;ratioP2
67757;SDS011;54562;47.620;18.786;2022-07-06T00:02:27;12.40;;;7.20;;
67757;SDS011;54562;47.620;18.786;2022-07-06T00:05:32;11.40;;;7.40;;
67757;SDS011;54562;47.620;18.786;2022-07-06T00:08:37;9.40;;;7.60;;
67757;SDS011;54562;47.620;18.786;2022-07-06T00:11:42;10.20;;;8.30;;
67757;SDS011;54562;47.620;18.786;2022-07-06T00:14:47;9.10;;;7.30;;
67757;SDS011;54562;47.620;18.786;2022-07-06T00:17:52;9.40;;;7.60;;
67757;SDS011;54562;47.620;18.786;2022-07-06T00:20:56;11.60;;;7.40;;
67757;SDS011;54562;47.620;18.786;2022-07-06T00:24:01;10.30;;;7.50;;
67757;SDS011;54562;47.620;18.786;2022-07-06T00:27:06;9.70;;;7.50;;
67757;SDS011;54562;47.620;18.786;2022-07-06T00:30:12;10.90;;;8.40;;
67757;SDS011;54562;47.620;18.786;2022-07-06T00:33:16;9.90;;;7.80;;
67757;SDS011;54562;47.620;18.786;2022-07-06T00:36:21;10.10;;;8.00;;
67757;SDS011;54562;47.620;18.786;2022-07-06T00:39:26;10.30;;;7.90;;
67757;SDS011;54562;47.620;18.786;2022-07-06T00:42:40;9.70;;;7.70;;
67757;SDS011;54562;47.620;18.786;2022-07-06T00:45:45;10.70;;;7.80;;
67757;SDS011;54562;47.620;18.786;2022-07-06T00:48:50;10.20;;;7.40;;
67757;SDS011;54562;47.620;18.786;2022-07-06T00:51:55;11.20;;;7.90;;
67757;SDS011;54562;47.620;18.786;2022-07-06T00:55:01;10.30;;;7.50;;
67757;SDS011;54562;47.620;18.786;2022-07-06T00:58:08;10.70;;;7.80;;
67757;SDS011;54562;47.620;18.786;2022-07-06T01:01:13;12.50;;;7.80;;
67757;SDS011;54562;47.620;18.786;2022-07-06T01:04:18;10.10;;;7.40;;
67757;SDS011;54562;47.620;18.786;2022-07-06T01:07:22;11.00;;;7.80;;
67757;SDS011;54562;47.620;18.786;2022-07-06T01:10:28;12.40;;;7.60;;
67757;SDS011;54562;47.620;18.786;2022-07-06T01:13:33;11.40;;;7.70;;
67757;SDS011;54562;47.620;18.786;2022-07-06T01:16:38;10.10;;;8.20;;
67757;SDS011;54562;47.620;18.786;2022-07-06T01:19:43;10.30;;;8.20;;
67757;SDS011;54562;47.620;18.786;2022-07-06T01:22:49;14.50;;;8.40;;
67757;SDS011;54562;47.620;18.786;2022-07-06T01:25:56;10.30;;;7.60;;
67757;SDS011;54562;47.620;18.786;2022-07-06T01:29:01;10.10;;;8.20;;
67757;SDS011;54562;47.620;18.786;2022-07-06T01:32:07;11.90;;;8.20;;
67757;SDS011;54562;47.620;18.786;2022-07-06T01:35:13;12.60;;;8.60;;
67757;SDS011;54562;47.620;18.786;2022-07-06T01:38:19;12.00;;;8.30;;
67757;SDS011;54562;47.620;18.786;2022-07-06T01:41:24;11.80;;;8.60;;
67757;SDS011;54562;47.620;18.786;2022-07-06T01:44:29;9.90;;;8.40;;
67757;SDS011;54562;47.620;18.786;2022-07-06T01:47:34;12.40;;;8.80;;
67757;SDS011;54562;47.620;18.786;2022-07-06T01:50:39;11.90;;;9.10;;
67757;SDS011;54562;47.620;18.786;2022-07-06T01:53:45;10.60;;;8.60;;
67757;SDS011;54562;47.620;18.786;2022-07-06T01:56:50;12.20;;;9.00;;
67757;SDS011;54562;47.620;18.786;2022-07-06T01:59:55;11.60;;;9.30;;
67757;SDS011;54562;47.620;18.786;2022-07-06T02:03:00;13.70;;;9.40;;
67757;SDS011;54562;47.620;18.786;2022-07-06T02:06:05;12.90;;;9.30;;
67757;SDS011;54562;47.620;18.786;2022-07-06T02:09:11;12.00;;;9.00;;
67757;SDS011;54562;47.620;18.786;2022-07-06T02:12:16;11.20;;;9.10;;
67757;SDS011;54562;47.620;18.786;2022-07-06T02:15:21;12.70;;;9.30;;
67757;SDS011;54562;47.620;18.786;2022-07-06T02:18:26;11.60;;;9.10;;
67757;SDS011;54562;47.620;18.786;2022-07-06T02:21:31;11.80;;;9.50;;
67757;SDS011;54562;47.620;18.786;2022-07-06T02:24:36;12.30;;;9.50;;
67757;SDS011;54562;47.620;18.786;2022-07-06T02:27:41;12.10;;;9.50;;
67757;SDS011;54562;47.620;18.786;2022-07-06T02:30:46;11.60;;;9.90;;
67757;SDS011;54562;47.620;18.786;2022-07-06T02:33:51;12.00;;;9.50;;
67757;SDS011;54562;47.620;18.786;2022-07-06T02:36:56;13.80;;;9.60;;
67757;SDS011;54562;47.620;18.786;2022-07-06T02:40:01;12.90;;;9.80;;
67757;SDS011;54562;47.620;18.786;2022-07-06T02:43:06;13.70;;;10.00;;
67757;SDS011;54562;47.620;18.786;2022-07-06T02:46:11;12.40;;;10.20;;
67757;SDS011;54562;47.620;18.786;2022-07-06T02:49:16;12.20;;;9.90;;
67757;SDS011;54562;47.620;18.786;2022-07-06T02:52:21;13.30;;;10.20;;
67757;SDS011;54562;47.620;18.786;2022-07-06T02:55:26;14.10;;;9.60;;
67757;SDS011;54562;47.620;18.786;2022-07-06T02:58:31;12.60;;;9.90;;
67757;SDS011;54562;47.620;18.786;2022-07-06T03:01:36;12.50;;;9.50;;
67757;SDS011;54562;47.620;18.786;2022-07-06T03:04:41;11.10;;;9.40;;
67757;SDS011;54562;47.620;18.786;2022-07-06T03:07:47;11.20;;;9.20;;
67757;SDS011;54562;47.620;18.786;2022-07-06T03:10:51;11.30;;;9.40;;
67757;SDS011;54562;47.620;18.786;2022-07-06T03:13:56;10.30;;;8.70;;
67757;SDS011;54562;47.620;18.786;2022-07-06T03:17:01;12.00;;;9.10;;
67757;SDS011;54562;47.620;18.786;2022-07-06T03:20:08;13.00;;;9.30;;
67757;SDS011;54562;47.620;18.786;2022-07-06T03:23:13;11.90;;;9.40;;
67757;SDS011;54562;47.620;18.786;2022-07-06T03:26:18;12.90;;;8.60;;
67757;SDS011;54562;47.620;18.786;2022-07-06T03:29:23;11.40;;;8.60;;
67757;SDS011;54562;47.620;18.786;2022-07-06T03:32:28;14.80;;;9.00;;
67757;SDS011;54562;47.620;18.786;2022-07-06T03:35:34;13.10;;;8.50;;
67757;SDS011;54562;47.620;18.786;2022-07-06T03:38:39;11.60;;;8.80;;
67757;SDS011;54562;47.620;18.786;2022-07-06T03:41:44;13.30;;;8.90;;
67757;SDS011;54562;47.620;18.786;2022-07-06T03:44:49;11.90;;;9.20;;
67757;SDS011;54562;47.620;18.786;2022-07-06T03:47:54;13.30;;;8.90;;
67757;SDS011;54562;47.620;18.786;2022-07-06T03:50:58;12.80;;;9.70;;
67757;SDS011;54562;47.620;18.786;2022-07-06T03:54:04;11.00;;;9.40;;
67757;SDS011;54562;47.620;18.786;2022-07-06T03:57:09;11.90;;;10.30;;
67757;SDS011;54562;47.620;18.786;2022-07-06T04:00:16;14.10;;;9.70;;
67757;SDS011;54562;47.620;18.786;2022-07-06T04:03:21;11.40;;;9.30;;
67757;SDS011;54562;47.620;18.786;2022-07-06T04:06:26;11.80;;;9.80;;
67757;SDS011;54562;47.620;18.786;2022-07-06T04:09:30;11.60;;;9.80;;
67757;SDS011;54562;47.620;18.786;2022-07-06T04:12:40;11.50;;;9.40;;
67757;SDS011;54562;47.620;18.786;2022-07-06T04:15:45;13.40;;;9.50;;
67757;SDS011;54562;47.620;18.786;2022-07-06T04:18:50;13.60;;;10.20;;
67757;SDS011;54562;47.620;18.786;2022-07-06T04:21:54;12.50;;;9.80;;
67757;SDS011;54562;47.620;18.786;2022-07-06T04:24:59;11.90;;;9.70;;
67757;SDS011;54562;47.620;18.786;2022-07-06T04:28:04;12.90;;;9.30;;
67757;SDS011;54562;47.620;18.786;2022-07-06T04:31:09;11.60;;;9.50;;
67757;SDS011;54562;47.620;18.786;2022-07-06T04:34:17;12.70;;;9.70;;
67757;SDS011;54562;47.620;18.786;2022-07-06T04:37:22;12.50;;;9.60;;
67757;SDS011;54562;47.620;18.786;2022-07-06T04:40:27;13.30;;;8.70;;
67757;SDS011;54562;47.620;18.786;2022-07-06T04:43:32;12.00;;;8.50;;
67757;SDS011;54562;47.620;18.786;2022-07-06T04:46:37;13.00;;;8.80;;
67757;SDS011;54562;47.620;18.786;2022-07-06T04:49:42;13.50;;;9.20;;
67757;SDS011;54562;47.620;18.786;2022-07-06T04:52:47;12.20;;;8.60;;
67757;SDS011;54562;47.620;18.786;2022-07-06T04:55:51;16.60;;;9.10;;
67757;SDS011;54562;47.620;18.786;2022-07-06T04:58:56;12.40;;;9.20;;
67757;SDS011;54562;47.620;18.786;2022-07-06T05:02:01;13.50;;;8.80;;
67757;SDS011;54562;47.620;18.786;2022-07-06T05:05:07;13.10;;;8.90;;
67757;SDS011;54562;47.620;18.786;2022-07-06T05:08:13;12.80;;;9.30;;
67757;SDS011;54562;47.620;18.786;2022-07-06T05:11:18;12.10;;;8.50;;
67757;SDS011;54562;47.620;18.786;2022-07-06T05:14:23;12.00;;;8.80;;
67757;SDS011;54562;47.620;18.786;2022-07-06T05:17:28;12.50;;;8.80;;
67757;SDS011;54562;47.620;18.786;2022-07-06T05:20:33;14.50;;;8.90;;
67757;SDS011;54562;47.620;18.786;2022-07-06T05:23:38;11.70;;;9.00;;
67757;SDS011;54562;47.620;18.786;2022-07-06T05:26:43;16.90;;;9.00;;
67757;SDS011;54562;47.620;18.786;2022-07-06T05:29:48;11.60;;;8.60;;
67757;SDS011;54562;47.620;18.786;2022-07-06T05:32:53;11.90;;;8.90;;
67757;SDS011;54562;47.620;18.786;2022-07-06T05:35:58;12.90;;;9.30;;
67757;SDS011;54562;47.620;18.786;2022-07-06T05:39:02;13.70;;;9.20;;
67757;SDS011;54562;47.620;18.786;2022-07-06T05:42:07;12.90;;;9.00;;
67757;SDS011;54562;47.620;18.786;2022-07-06T05:45:13;11.70;;;8.90;;
67757;SDS011;54562;47.620;18.786;2022-07-06T05:48:18;12.90;;;9.30;;
67757;SDS011;54562;47.620;18.786;2022-07-06T05:51:41;12.90;;;8.70;;
67757;SDS011;54562;47.620;18.786;2022-07-06T05:54:46;12.50;;;8.90;;
67757;SDS011;54562;47.620;18.786;2022-07-06T05:57:51;13.40;;;9.20;;
67757;SDS011;54562;47.620;18.786;2022-07-06T06:00:57;12.70;;;9.10;;
67757;SDS011;54562;47.620;18.786;2022-07-06T06:04:02;13.00;;;9.50;;
67757;SDS011;54562;47.620;18.786;2022-07-06T06:07:07;12.00;;;8.80;;
67757;SDS011;54562;47.620;18.786;2022-07-06T06:10:14;14.40;;;9.10;;
67757;SDS011;54562;47.620;18.786;2022-07-06T06:13:19;12.50;;;9.30;;
67757;SDS011;54562;47.620;18.786;2022-07-06T06:16:24;12.40;;;8.80;;
67757;SDS011;54562;47.620;18.786;2022-07-06T06:19:29;12.20;;;9.30;;
67757;SDS011;54562;47.620;18.786;2022-07-06T06:22:46;14.60;;;10.20;;
67757;SDS011;54562;47.620;18.786;2022-07-06T06:25:51;11.70;;;8.60;;
67757;SDS011;54562;47.620;18.786;2022-07-06T06:28:56;13.90;;;8.50;;
67757;SDS011;54562;47.620;18.786;2022-07-06T06:32:01;11.90;;;8.70;;
67757;SDS011;54562;47.620;18.786;2022-07-06T06:35:09;12.90;;;8.70;;
67757;SDS011;54562;47.620;18.786;2022-07-06T06:38:14;12.60;;;8.40;;
67757;SDS011;54562;47.620;18.786;2022-07-06T06:41:20;12.60;;;9.00;;
67757;SDS011;54562;47.620;18.786;2022-07-06T06:44:25;11.60;;;8.20;;
67757;SDS011;54562;47.620;18.786;2022-07-06T06:47:30;11.60;;;8.80;;
67757;SDS011;54562;47.620;18.786;2022-07-06T06:50:35;11.40;;;8.30;;
67757;SDS011;54562;47.620;18.786;2022-07-06T06:53:40;21.30;;;9.30;;
67757;SDS011;54562;47.620;18.786;2022-07-06T06:56:45;17.80;;;9.30;;
67757;SDS011;54562;47.620;18.786;2022-07-06T06:59:50;12.30;;;8.30;;
67757;SDS011;54562;47.620;18.786;2022-07-06T07:02:55;12.20;;;8.30;;
67757;SDS011;54562;47.620;18.786;2022-07-06T07:06:00;13.00;;;8.40;;
67757;SDS011;54562;47.620;18.786;2022-07-06T07:09:05;15.50;;;8.60;;
67757;SDS011;54562;47.620;18.786;2022-07-06T07:12:10;10.70;;;7.80;;
67757;SDS011;54562;47.620;18.786;2022-07-06T07:15:15;11.00;;;7.60;;
67757;SDS011;54562;47.620;18.786;2022-07-06T07:18:20;11.20;;;7.40;;
67757;SDS011;54562;47.620;18.786;2022-07-06T07:21:25;11.10;;;6.70;;
67757;SDS011;54562;47.620;18.786;2022-07-06T07:24:30;10.20;;;6.90;;
67757;SDS011;54562;47.620;18.786;2022-07-06T07:27:35;9.50;;;6.50;;
67757;SDS011;54562;47.620;18.786;2022-07-06T07:30:40;12.30;;;6.60;;
67757;SDS011;54562;47.620;18.786;2022-07-06T07:33:45;10.50;;;6.40;;
67757;SDS011;54562;47.620;18.786;2022-07-06T07:36:50;11.40;;;6.60;;
67757;SDS011;54562;47.620;18.786;2022-07-06T07:39:55;9.10;;;6.00;;
67757;SDS011;54562;47.620;18.786;2022-07-06T07:43:00;10.60;;;6.20;;
67757;SDS011;54562;47.620;18.786;2022-07-06T07:46:05;8.10;;;5.80;;
67757;SDS011;54562;47.620;18.786;2022-07-06T07:49:10;20.10;;;6.00;;
67757;SDS011;54562;47.620;18.786;2022-07-06T07:52:23;8.40;;;5.70;;
67757;SDS011;54562;47.620;18.786;2022-07-06T07:55:28;8.60;;;6.70;;
67757;SDS011;54562;47.620;18.786;2022-07-06T07:58:44;11.20;;;6.60;;
67757;SDS011;54562;47.620;18.786;2022-07-06T08:01:51;15.10;;;7.30;;
67757;SDS011;54562;47.620;18.786;2022-07-06T08:04:56;12.60;;;6.80;;
67757;SDS011;54562;47.620;18.786;2022-07-06T08:08:02;10.40;;;6.70;;
67757;SDS011;54562;47.620;18.786;2022-07-06T08:11:07;10.70;;;6.60;;
67757;SDS011;54562;47.620;18.786;2022-07-06T08:14:22;8.90;;;6.20;;
67757;SDS011;54562;47.620;18.786;2022-07-06T08:17:26;11.30;;;6.30;;
67757;SDS011;54562;47.620;18.786;2022-07-06T08:20:32;9.70;;;6.00;;
67757;SDS011;54562;47.620;18.786;2022-07-06T08:23:37;9.60;;;5.90;;
67757;SDS011;54562;47.620;18.786;2022-07-06T08:26:42;11.80;;;6.10;;
67757;SDS011;54562;47.620;18.786;2022-07-06T08:29:46;10.80;;;6.70;;
67757;SDS011;54562;47.620;18.786;2022-07-06T08:32:51;9.40;;;6.20;;
67757;SDS011;54562;47.620;18.786;2022-07-06T08:36:12;8.80;;;5.60;;
67757;SDS011;54562;47.620;18.786;2022-07-06T08:39:17;22.80;;;9.10;;
67757;SDS011;54562;47.620;18.786;2022-07-06T08:42:22;13.70;;;5.90;;
67757;SDS011;54562;47.620;18.786;2022-07-06T08:45:34;14.60;;;6.20;;
67757;SDS011;54562;47.620;18.786;2022-07-06T08:48:41;8.50;;;5.80;;
67757;SDS011;54562;47.620;18.786;2022-07-06T08:51:46;8.20;;;5.20;;
67757;SDS011;54562;47.620;18.786;2022-07-06T08:54:52;9.30;;;5.30;;
67757;SDS011;54562;47.620;18.786;2022-07-06T08:57:58;7.50;;;4.80;;
67757;SDS011;54562;47.620;18.786;2022-07-06T09:01:03;8.20;;;4.80;;
67757;SDS011;54562;47.620;18.786;2022-07-06T09:04:08;10.10;;;4.90;;
67757;SDS011;54562;47.620;18.786;2022-07-06T09:07:15;12.00;;;5.00;;
67757;SDS011;54562;47.620;18.786;2022-07-06T09:10:42;9.40;;;5.10;;
67757;SDS011;54562;47.620;18.786;2022-07-06T09:13:47;8.70;;;4.90;;
67757;SDS011;54562;47.620;18.786;2022-07-06T09:17:02;8.40;;;4.70;;
67757;SDS011;54562;47.620;18.786;2022-07-06T09:20:14;12.20;;;4.60;;
67757;SDS011;54562;47.620;18.786;2022-07-06T09:23:19;8.80;;;4.40;;
67757;SDS011;54562;47.620;18.786;2022-07-06T09:26:28;12.30;;;4.90;;
67757;SDS011;54562;47.620;18.786;2022-07-06T09:29:33;8.90;;;4.50;;
67757;SDS011;54562;47.620;18.786;2022-07-06T09:32:40;10.60;;;4.40;;
67757;SDS011;54562;47.620;18.786;2022-07-06T09:35:46;6.60;;;3.90;;
67757;SDS011;54562;47.620;18.786;2022-07-06T09:38:51;8.20;;;3.70;;
67757;SDS011;54562;47.620;18.786;2022-07-06T09:41:58;6.30;;;3.60;;
67757;SDS011;54562;47.620;18.786;2022-07-06T09:45:06;7.60;;;3.80;;
67757;SDS011;54562;47.620;18.786;2022-07-06T09:51:20;6.60;;;3.80;;
67757;SDS011;54562;47.620;18.786;2022-07-06T09:54:29;8.20;;;3.80;;
67757;SDS011;54562;47.620;18.786;2022-07-06T09:57:34;5.90;;;3.40;;
67757;SDS011;54562;47.620;18.786;2022-07-06T10:00:39;7.10;;;3.70;;
67757;SDS011;54562;47.620;18.786;2022-07-06T10:03:44;7.20;;;3.70;;
67757;SDS011;54562;47.620;18.786;2022-07-06T10:06:49;8.60;;;3.60;;
67757;SDS011;54562;47.620;18.786;2022-07-06T10:09:54;6.50;;;3.60;;
67757;SDS011;54562;47.620;18.786;2022-07-06T10:13:00;8.60;;;3.50;;
67757;SDS011;54562;47.620;18.786;2022-07-06T10:16:06;9.30;;;3.70;;
67757;SDS011;54562;47.620;18.786;2022-07-06T10:19:13;7.40;;;3.70;;
67757;SDS011;54562;47.620;18.786;2022-07-06T10:22:19;7.60;;;3.90;;
67757;SDS011;54562;47.620;18.786;2022-07-06T10:25:25;9.50;;;3.60;;
67757;SDS011;54562;47.620;18.786;2022-07-06T10:28:31;13.10;;;3.80;;
67757;SDS011;54562;47.620;18.786;2022-07-06T10:31:39;15.90;;;4.20;;
67757;SDS011;54562;47.620;18.786;2022-07-06T10:34:48;6.30;;;3.70;;
67757;SDS011;54562;47.620;18.786;2022-07-06T10:38:04;11.20;;;3.60;;
67757;SDS011;54562;47.620;18.786;2022-07-06T10:41:10;9.20;;;4.00;;
67757;SDS011;54562;47.620;18.786;2022-07-06T10:44:18;33.20;;;4.70;;
67757;SDS011;54562;47.620;18.786;2022-07-06T10:47:28;8.70;;;4.00;;
67757;SDS011;54562;47.620;18.786;2022-07-06T10:50:36;17.00;;;4.30;;
67757;SDS011;54562;47.620;18.786;2022-07-06T10:53:42;12.50;;;3.90;;
67757;SDS011;54562;47.620;18.786;2022-07-06T10:56:48;6.60;;;4.00;;
67757;SDS011;54562;47.620;18.786;2022-07-06T11:00:03;10.60;;;3.80;;
67757;SDS011;54562;47.620;18.786;2022-07-06T11:03:36;33.20;;;5.00;;
67757;SDS011;54562;47.620;18.786;2022-07-06T11:06:46;8.30;;;3.70;;
67757;SDS011;54562;47.620;18.786;2022-07-06T11:09:55;6.60;;;3.70;;
67757;SDS011;54562;47.620;18.786;2022-07-06T11:13:01;9.10;;;3.80;;
67757;SDS011;54562;47.620;18.786;2022-07-06T11:16:06;6.80;;;3.70;;
67757;SDS011;54562;47.620;18.786;2022-07-06T11:19:12;7.20;;;4.10;;
67757;SDS011;54562;47.620;18.786;2022-07-06T11:22:18;8.20;;;3.70;;
67757;SDS011;54562;47.620;18.786;2022-07-06T11:25:23;10.80;;;3.40;;
67757;SDS011;54562;47.620;18.786;2022-07-06T11:28:28;8.30;;;3.40;;
67757;SDS011;54562;47.620;18.786;2022-07-06T11:31:37;8.50;;;3.60;;
67757;SDS011;54562;47.620;18.786;2022-07-06T11:34:44;14.30;;;4.00;;
67757;SDS011;54562;47.620;18.786;2022-07-06T11:37:49;10.70;;;3.40;;
67757;SDS011;54562;47.620;18.786;2022-07-06T11:40:54;22.10;;;4.10;;
67757;SDS011;54562;47.620;18.786;2022-07-06T11:43:59;6.90;;;3.50;;
67757;SDS011;54562;47.620;18.786;2022-07-06T11:47:06;7.80;;;3.40;;
67757;SDS011;54562;47.620;18.786;2022-07-06T11:50:19;8.00;;;3.60;;
67757;SDS011;54562;47.620;18.786;2022-07-06T11:53:24;11.40;;;3.80;;
67757;SDS011;54562;47.620;18.786;2022-07-06T11:56:30;6.60;;;3.40;;
67757;SDS011;54562;47.620;18.786;2022-07-06T11:59:37;14.40;;;3.80;;
67757;SDS011;54562;47.620;18.786;2022-07-06T12:02:59;7.60;;;3.40;;
67757;SDS011;54562;47.620;18.786;2022-07-06T12:06:12;9.00;;;3.30;;
67757;SDS011;54562;47.620;18.786;2022-07-06T12:09:18;8.20;;;3.50;;
67757;SDS011;54562;47.620;18.786;2022-07-06T12:12:24;10.40;;;3.90;;
67757;SDS011;54562;47.620;18.786;2022-07-06T12:15:29;8.30;;;3.30;;
67757;SDS011;54562;47.620;18.786;2022-07-06T12:18:37;6.40;;;3.00;;
67757;SDS011;54562;47.620;18.786;2022-07-06T12:21:47;6.70;;;3.10;;
67757;SDS011;54562;47.620;18.786;2022-07-06T12:24:53;33.10;;;3.80;;
67757;SDS011;54562;47.620;18.786;2022-07-06T12:27:58;16.90;;;3.20;;
67757;SDS011;54562;47.620;18.786;2022-07-06T12:31:03;6.30;;;2.70;;
67757;SDS011;54562;47.620;18.786;2022-07-06T12:34:15;26.70;;;3.70;;
67757;SDS011;54562;47.620;18.786;2022-07-06T12:37:21;9.70;;;2.60;;
67757;SDS011;54562;47.620;18.786;2022-07-06T12:40:27;8.40;;;2.80;;
67757;SDS011;54562;47.620;18.786;2022-07-06T12:43:39;5.60;;;2.70;;
67757;SDS011;54562;47.620;18.786;2022-07-06T12:46:45;6.30;;;2.80;;
67757;SDS011;54562;47.620;18.786;2022-07-06T12:50:05;7.70;;;2.80;;
67757;SDS011;54562;47.620;18.786;2022-07-06T12:53:25;9.90;;;2.70;;
67757;SDS011;54562;47.620;18.786;2022-07-06T12:56:32;9.40;;;3.00;;
67757;SDS011;54562;47.620;18.786;2022-07-06T12:59:40;7.40;;;3.00;;
67757;SDS011;54562;47.620;18.786;2022-07-06T13:02:50;14.30;;;2.80;;
67757;SDS011;54562;47.620;18.786;2022-07-06T13:06:15;12.90;;;3.20;;
67757;SDS011;54562;47.620;18.786;2022-07-06T13:09:32;24.90;;;3.30;;
67757;SDS011;54562;47.620;18.786;2022-07-06T13:12:37;7.50;;;2.80;;
67757;SDS011;54562;47.620;18.786;2022-07-06T13:15:43;9.40;;;2.70;;
67757;SDS011;54562;47.620;18.786;2022-07-06T13:18:47;5.50;;;2.80;;
67757;SDS011;54562;47.620;18.786;2022-07-06T13:21:53;13.90;;;3.00;;
67757;SDS011;54562;47.620;18.786;2022-07-06T13:24:57;6.10;;;2.60;;
67757;SDS011;54562;47.620;18.786;2022-07-06T13:28:03;9.80;;;2.90;;
67757;SDS011;54562;47.620;18.786;2022-07-06T13:31:08;5.20;;;2.70;;
67757;SDS011;54562;47.620;18.786;2022-07-06T13:34:15;5.50;;;2.60;;
67757;SDS011;54562;47.620;18.786;2022-07-06T13:37:20;8.10;;;2.70;;
67757;SDS011;54562;47.620;18.786;2022-07-06T13:40:25;5.50;;;2.60;;
67757;SDS011;54562;47.620;18.786;2022-07-06T13:43:31;5.60;;;2.70;;
67757;SDS011;54562;47.620;18.786;2022-07-06T13:46:40;4.80;;;2.40;;
67757;SDS011;54562;47.620;18.786;2022-07-06T13:49:45;7.00;;;2.60;;
67757;SDS011;54562;47.620;18.786;2022-07-06T13:52:50;6.90;;;2.70;;
67757;SDS011;54562;47.620;18.786;2022-07-06T13:55:55;6.80;;;2.30;;
67757;SDS011;54562;47.620;18.786;2022-07-06T13:59:00;5.70;;;2.20;;
67757;SDS011;54562;47.620;18.786;2022-07-06T14:02:05;6.20;;;2.40;;
67757;SDS011;54562;47.620;18.786;2022-07-06T14:05:11;4.40;;;2.10;;
67757;SDS011;54562;47.620;18.786;2022-07-06T14:08:16;4.60;;;2.30;;
67757;SDS011;54562;47.620;18.786;2022-07-06T14:11:21;7.00;;;2.00;;
67757;SDS011;54562;47.620;18.786;2022-07-06T14:14:26;5.50;;;2.00;;
67757;SDS011;54562;47.620;18.786;2022-07-06T14:17:31;4.40;;;1.90;;
67757;SDS011;54562;47.620;18.786;2022-07-06T14:20:36;10.10;;;1.80;;
67757;SDS011;54562;47.620;18.786;2022-07-06T14:23:41;3.30;;;1.60;;
67757;SDS011;54562;47.620;18.786;2022-07-06T14:26:46;3.60;;;1.70;;
67757;SDS011;54562;47.620;18.786;2022-07-06T14:29:51;5.60;;;1.80;;
67757;SDS011;54562;47.620;18.786;2022-07-06T14:32:55;6.10;;;1.80;;
67757;SDS011;54562;47.620;18.786;2022-07-06T14:36:01;5.10;;;1.80;;
67757;SDS011;54562;47.620;18.786;2022-07-06T14:39:06;5.60;;;1.70;;
67757;SDS011;54562;47.620;18.786;2022-07-06T14:42:12;4.10;;;1.90;;
67757;SDS011;54562;47.620;18.786;2022-07-06T14:45:17;11.80;;;2.30;;
67757;SDS011;54562;47.620;18.786;2022-07-06T14:48:22;4.60;;;1.80;;
67757;SDS011;54562;47.620;18.786;2022-07-06T14:51:27;7.30;;;1.80;;
67757;SDS011;54562;47.620;18.786;2022-07-06T14:54:32;5.80;;;2.20;;
67757;SDS011;54562;47.620;18.786;2022-07-06T14:57:37;6.70;;;2.10;;
67757;SDS011;54562;47.620;18.786;2022-07-06T15:00:42;8.00;;;2.00;;
67757;SDS011;54562;47.620;18.786;2022-07-06T15:03:47;4.30;;;1.90;;
67757;SDS011;54562;47.620;18.786;2022-07-06T15:06:52;5.00;;;1.90;;
67757;SDS011;54562;47.620;18.786;2022-07-06T15:09:59;8.80;;;2.10;;
67757;SDS011;54562;47.620;18.786;2022-07-06T15:13:04;5.50;;;1.80;;
67757;SDS011;54562;47.620;18.786;2022-07-06T15:16:08;9.70;;;2.10;;
67757;SDS011;54562;47.620;18.786;2022-07-06T15:19:14;4.60;;;1.90;;
67757;SDS011;54562;47.620;18.786;2022-07-06T15:22:19;4.40;;;1.90;;
67757;SDS011;54562;47.620;18.786;2022-07-06T15:25:24;4.60;;;1.90;;
67757;SDS011;54562;47.620;18.786;2022-07-06T15:28:29;8.50;;;2.00;;
67757;SDS011;54562;47.620;18.786;2022-07-06T15:31:35;12.10;;;2.20;;
67757;SDS011;54562;47.620;18.786;2022-07-06T15:34:40;3.60;;;1.70;;
67757;SDS011;54562;47.620;18.786;2022-07-06T15:37:45;3.90;;;1.80;;
67757;SDS011;54562;47.620;18.786;2022-07-06T15:40:57;9.30;;;1.90;;
67757;SDS011;54562;47.620;18.786;2022-07-06T15:44:05;4.30;;;1.70;;
67757;SDS011;54562;47.620;18.786;2022-07-06T15:47:10;4.60;;;1.80;;
67757;SDS011;54562;47.620;18.786;2022-07-06T15:50:16;3.80;;;1.70;;
67757;SDS011;54562;47.620;18.786;2022-07-06T15:53:21;6.00;;;2.00;;
67757;SDS011;54562;47.620;18.786;2022-07-06T15:56:27;5.50;;;1.90;;
67757;SDS011;54562;47.620;18.786;2022-07-06T15:59:31;4.10;;;2.00;;
67757;SDS011;54562;47.620;18.786;2022-07-06T16:02:36;8.80;;;2.20;;
67757;SDS011;54562;47.620;18.786;2022-07-06T16:05:42;5.80;;;1.90;;
67757;SDS011;54562;47.620;18.786;2022-07-06T16:09:07;7.80;;;2.20;;
67757;SDS011;54562;47.620;18.786;2022-07-06T16:12:12;7.90;;;2.30;;
67757;SDS011;54562;47.620;18.786;2022-07-06T16:15:17;9.10;;;2.00;;
67757;SDS011;54562;47.620;18.786;2022-07-06T16:18:22;5.10;;;2.20;;
67757;SDS011;54562;47.620;18.786;2022-07-06T16:21:28;5.30;;;2.20;;
67757;SDS011;54562;47.620;18.786;2022-07-06T16:24:33;7.80;;;2.10;;
67757;SDS011;54562;47.620;18.786;2022-07-06T16:27:38;5.70;;;2.30;;
67757;SDS011;54562;47.620;18.786;2022-07-06T16:30:44;8.00;;;2.30;;
67757;SDS011;54562;47.620;18.786;2022-07-06T16:33:50;4.50;;;2.00;;
67757;SDS011;54562;47.620;18.786;2022-07-06T16:36:54;6.40;;;2.10;;
67757;SDS011;54562;47.620;18.786;2022-07-06T16:39:59;9.80;;;2.30;;
67757;SDS011;54562;47.620;18.786;2022-07-06T16:43:05;5.10;;;2.20;;
67757;SDS011;54562;47.620;18.786;2022-07-06T16:46:10;5.10;;;2.10;;
67757;SDS011;54562;47.620;18.786;2022-07-06T16:49:15;11.40;;;2.30;;
67757;SDS011;54562;47.620;18.786;2022-07-06T16:52:20;13.60;;;2.40;;
67757;SDS011;54562;47.620;18.786;2022-07-06T16:55:26;19.20;;;2.40;;
67757;SDS011;54562;47.620;18.786;2022-07-06T16:58:31;6.60;;;1.90;;
67757;SDS011;54562;47.620;18.786;2022-07-06T17:01:36;6.10;;;2.10;;
67757;SDS011;54562;47.620;18.786;2022-07-06T17:04:42;8.00;;;2.20;;
67757;SDS011;54562;47.620;18.786;2022-07-06T17:07:47;4.40;;;1.90;;
67757;SDS011;54562;47.620;18.786;2022-07-06T17:10:53;5.30;;;2.00;;
67757;SDS011;54562;47.620;18.786;2022-07-06T17:13:57;9.60;;;2.30;;
67757;SDS011;54562;47.620;18.786;2022-07-06T17:17:03;9.80;;;2.10;;
67757;SDS011;54562;47.620;18.786;2022-07-06T17:20:09;5.90;;;1.80;;
67757;SDS011;54562;47.620;18.786;2022-07-06T17:23:14;7.60;;;2.00;;
67757;SDS011;54562;47.620;18.786;2022-07-06T17:26:19;4.70;;;2.00;;
67757;SDS011;54562;47.620;18.786;2022-07-06T17:29:26;4.20;;;1.90;;
67757;SDS011;54562;47.620;18.786;2022-07-06T17:32:31;4.40;;;1.80;;
67757;SDS011;54562;47.620;18.786;2022-07-06T17:35:36;4.90;;;2.00;;
67757;SDS011;54562;47.620;18.786;2022-07-06T17:38:40;5.60;;;2.00;;
67757;SDS011;54562;47.620;18.786;2022-07-06T17:41:45;5.00;;;1.80;;
67757;SDS011;54562;47.620;18.786;2022-07-06T17:44:50;4.50;;;1.80;;
67757;SDS011;54562;47.620;18.786;2022-07-06T17:47:57;3.80;;;1.90;;
67757;SDS011;54562;47.620;18.786;2022-07-06T17:51:03;3.30;;;1.70;;
67757;SDS011;54562;47.620;18.786;2022-07-06T17:54:08;4.80;;;1.90;;
67757;SDS011;54562;47.620;18.786;2022-07-06T17:57:13;4.30;;;2.00;;
67757;SDS011;54562;47.620;18.786;2022-07-06T18:00:18;4.00;;;1.80;;
67757;SDS011;54562;47.620;18.786;2022-07-06T18:03:23;4.10;;;2.00;;
67757;SDS011;54562;47.620;18.786;2022-07-06T18:06:29;7.20;;;2.00;;
67757;SDS011;54562;47.620;18.786;2022-07-06T18:09:34;3.40;;;1.70;;
67757;SDS011;54562;47.620;18.786;2022-07-06T18:12:40;5.30;;;2.10;;
67757;SDS011;54562;47.620;18.786;2022-07-06T18:15:44;6.40;;;2.20;;
67757;SDS011;54562;47.620;18.786;2022-07-06T18:18:50;8.30;;;2.20;;
67757;SDS011;54562;47.620;18.786;2022-07-06T18:21:55;5.00;;;2.10;;